sensor_id;sensor_type;location;lat;lon;timestamp;pressure;altitude;pressure_sealevel;temperature;humidity
27958;BME280;15295;42.658;23.374;2023-01-04T00:01:06;95506.63;;;14.95;49.40
27958;BME280;15295;42.658;23.374;2023-01-04T00:03:33;95513.25;;;14.97;49.48
27958;BME280;15295;42.658;23.374;2023-01-04T00:06:02;95508.16;;;14.96;49.50
27958;BME280;15295;42.658;23.374;2023-01-04T00:08:28;95497.97;;;14.89;49.47
27958;BME280;15295;42.658;23.374;2023-01-04T00:11:05;95514.84;;;14.98;49.55
27958;BME280;15295;42.658;23.374;2023-01-04T00:13:31;95506.63;;;14.95;49.50
27958;BME280;15295;42.658;23.374;2023-01-04T00:16:03;95515.19;;;15.07;49.51
27958;BME280;15295;42.658;23.374;2023-01-04T00:18:29;95503.00;;;15.01;49.38
27958;BME280;15295;42.658;23.374;2023-01-04T00:21:05;95514.41;;;15.07;49.44
27958;BME280;15295;42.658;23.374;2023-01-04T00:23:31;95501.13;;;14.91;49.60
27958;BME280;15295;42.658;23.374;2023-01-04T00:25:57;95506.59;;;14.98;49.40
27958;BME280;15295;42.658;23.374;2023-01-04T00:28:23;95504.72;;;14.81;49.61
27958;BME280;15295;42.658;23.374;2023-01-04T00:30:48;95510.50;;;14.97;49.35
27958;BME280;15295;42.658;23.374;2023-01-04T00:33:13;95505.00;;;14.97;49.15
27958;BME280;15295;42.658;23.374;2023-01-04T00:35:39;95509.84;;;14.76;49.52
27958;BME280;15295;42.658;23.374;2023-01-04T00:38:04;95514.47;;;14.96;49.17
27958;BME280;15295;42.658;23.374;2023-01-04T00:40:29;95512.06;;;15.05;48.94
27958;BME280;15295;42.658;23.374;2023-01-04T00:42:55;95518.38;;;14.95;49.00
27958;BME280;15295;42.658;23.374;2023-01-04T00:45:20;95514.13;;;14.87;49.26
27958;BME280;15295;42.658;23.374;2023-01-04T00:47:46;95472.56;;;14.71;48.97
27958;BME280;15295;42.658;23.374;2023-01-04T00:50:15;95500.72;;;14.89;48.66
27958;BME280;15295;42.658;23.374;2023-01-04T00:52:40;95502.69;;;14.92;48.68
27958;BME280;15295;42.658;23.374;2023-01-04T00:55:13;95510.94;;;14.92;48.85
27958;BME280;15295;42.658;23.374;2023-01-04T00:57:39;95501.59;;;14.79;48.85
27958;BME280;15295;42.658;23.374;2023-01-04T01:00:05;95509.06;;;14.79;48.86
27958;BME280;15295;42.658;23.374;2023-01-04T01:02:35;95518.06;;;14.86;48.73
27958;BME280;15295;42.658;23.374;2023-01-04T01:05:04;95522.00;;;14.85;48.80
27958;BME280;15295;42.658;23.374;2023-01-04T01:07:30;95532.56;;;14.94;48.71
27958;BME280;15295;42.658;23.374;2023-01-04T01:09:58;95536.09;;;14.94;48.66
27958;BME280;15295;42.658;23.374;2023-01-04T01:12:29;95527.09;;;14.87;48.33
27958;BME280;15295;42.658;23.374;2023-01-04T01:14:54;95540.47;;;14.88;48.63
27958;BME280;15295;42.658;23.374;2023-01-04T01:17:20;95528.28;;;14.82;48.60
27958;BME280;15295;42.658;23.374;2023-01-04T01:19:46;95557.31;;;14.97;48.75
27958;BME280;15295;42.658;23.374;2023-01-04T01:22:12;95532.22;;;14.85;48.54
27958;BME280;15295;42.658;23.374;2023-01-04T01:24:37;95536.16;;;14.80;48.60
27958;BME280;15295;42.658;23.374;2023-01-04T01:27:05;95528.72;;;14.77;47.98
27958;BME280;15295;42.658;23.374;2023-01-04T01:29:31;95547.16;;;14.80;48.16
27958;BME280;15295;42.658;23.374;2023-01-04T01:31:57;95544.41;;;14.80;48.35
27958;BME280;15295;42.658;23.374;2023-01-04T01:34:26;95520.94;;;14.61;48.67
27958;BME280;15295;42.658;23.374;2023-01-04T01:36:57;95531.88;;;14.72;48.90
27958;BME280;15295;42.658;23.374;2023-01-04T01:39:24;95535.03;;;14.67;49.02
27958;BME280;15295;42.658;23.374;2023-01-04T01:41:51;95534.72;;;14.51;49.28
27958;BME280;15295;42.658;23.374;2023-01-04T01:47:20;95525.66;;;14.64;49.09
27958;BME280;15295;42.658;23.374;2023-01-04T01:49:52;95536.66;;;14.64;49.10
27958;BME280;15295;42.658;23.374;2023-01-04T01:52:31;95533.91;;;14.61;49.51
27958;BME280;15295;42.658;23.374;2023-01-04T01:55:03;95521.03;;;14.40;49.75
27958;BME280;15295;42.658;23.374;2023-01-04T01:57:38;95531.97;;;14.54;49.68
27958;BME280;15295;42.658;23.374;2023-01-04T02:00:10;95505.31;;;14.37;49.92
27958;BME280;15295;42.658;23.374;2023-01-04T02:02:48;95519.41;;;14.46;49.91
27958;BME280;15295;42.658;23.374;2023-01-04T02:05:19;95504.16;;;14.31;50.13
27958;BME280;15295;42.658;23.374;2023-01-04T02:07:56;95509.66;;;14.31;50.14
27958;BME280;15295;42.658;23.374;2023-01-04T02:10:24;95517.09;;;14.38;50.07
27958;BME280;15295;42.658;23.374;2023-01-04T02:12:52;95517.50;;;14.26;50.21
27958;BME280;15295;42.658;23.374;2023-01-04T02:15:26;95524.50;;;14.55;49.73
27958;BME280;15295;42.658;23.374;2023-01-04T02:18:09;95526.88;;;14.53;49.84
27958;BME280;15295;42.658;23.374;2023-01-04T02:20:45;95519.00;;;14.48;49.81
27958;BME280;15295;42.658;23.374;2023-01-04T02:26:07;95524.50;;;14.48;49.79
27958;BME280;15295;42.658;23.374;2023-01-04T02:29:08;95519.41;;;14.46;49.97
27958;BME280;15295;42.658;23.374;2023-01-04T02:31:43;95514.34;;;14.38;50.23
27958;BME280;15295;42.658;23.374;2023-01-04T02:34:19;95521.81;;;14.41;50.05
27958;BME280;15295;42.658;23.374;2023-01-04T02:42:39;95519.47;;;14.36;50.12
27958;BME280;15295;42.658;23.374;2023-01-04T02:45:38;95508.88;;;14.31;50.16
27958;BME280;15295;42.658;23.374;2023-01-04T02:48:11;95499.47;;;14.21;50.46
27958;BME280;15295;42.658;23.374;2023-01-04T02:51:02;95514.38;;;14.24;50.35
27958;BME280;15295;42.658;23.374;2023-01-04T02:53:38;95514.78;;;14.19;50.82
27958;BME280;15295;42.658;23.374;2023-01-04T02:56:27;95507.72;;;14.18;50.81
27958;BME280;15295;42.658;23.374;2023-01-04T03:05:30;95517.19;;;13.96;51.66
27958;BME280;15295;42.658;23.374;2023-01-04T03:11:11;95511.31;;;13.93;51.54
27958;BME280;15295;42.658;23.374;2023-01-04T03:14:00;95507.81;;;13.82;51.72
27958;BME280;15295;42.658;23.374;2023-01-04T03:16:30;95507.03;;;13.78;51.94
27958;BME280;15295;42.658;23.374;2023-01-04T03:18:58;95516.81;;;13.79;51.81
27958;BME280;15295;42.658;23.374;2023-01-04T03:21:29;95513.28;;;13.86;51.92
27958;BME280;15295;42.658;23.374;2023-01-04T03:23:59;95516.84;;;13.76;51.90
27958;BME280;15295;42.658;23.374;2023-01-04T03:26:52;95512.53;;;13.71;52.01
27958;BME280;15295;42.658;23.374;2023-01-04T03:29:57;95518.00;;;13.71;51.90
27958;BME280;15295;42.658;23.374;2023-01-04T03:32:52;95528.22;;;13.74;51.89
27958;BME280;15295;42.658;23.374;2023-01-04T03:35:45;95514.13;;;13.62;52.07
27958;BME280;15295;42.658;23.374;2023-01-04T03:38:17;95514.50;;;13.53;52.24
27958;BME280;15295;42.658;23.374;2023-01-04T03:41:24;95525.88;;;13.69;52.12
27958;BME280;15295;42.658;23.374;2023-01-04T03:45:20;95522.72;;;13.67;52.26
27958;BME280;15295;42.658;23.374;2023-01-04T03:51:27;95529.41;;;13.59;52.34
27958;BME280;15295;42.658;23.374;2023-01-04T03:53:59;95519.19;;;13.39;52.80
27958;BME280;15295;42.658;23.374;2023-01-04T03:56:30;95521.97;;;13.46;52.61
27958;BME280;15295;42.658;23.374;2023-01-04T03:59:02;95514.13;;;13.41;52.47
27958;BME280;15295;42.658;23.374;2023-01-04T04:01:27;95525.50;;;13.43;52.55
27958;BME280;15295;42.658;23.374;2023-01-04T04:03:56;95527.44;;;13.35;52.71
27958;BME280;15295;42.658;23.374;2023-01-04T04:06:40;95527.44;;;13.35;52.58
27958;BME280;15295;42.658;23.374;2023-01-04T04:09:24;95536.88;;;13.34;52.63
27958;BME280;15295;42.658;23.374;2023-01-04T04:11:50;95517.66;;;13.24;52.84
27958;BME280;15295;42.658;23.374;2023-01-04T04:14:15;95543.53;;;13.37;52.70
27958;BME280;15295;42.658;23.374;2023-01-04T04:16:42;95540.00;;;13.29;52.98
27958;BME280;15295;42.658;23.374;2023-01-04T04:19:09;95551.00;;;13.36;52.92
27958;BME280;15295;42.658;23.374;2023-01-04T04:21:35;95547.06;;;13.37;52.94
27958;BME280;15295;42.658;23.374;2023-01-04T04:24:01;95526.28;;;13.29;52.92
27958;BME280;15295;42.658;23.374;2023-01-04T04:26:27;95536.09;;;13.41;52.83
27958;BME280;15295;42.658;23.374;2023-01-04T04:28:55;95540.00;;;13.43;52.64
27958;BME280;15295;42.658;23.374;2023-01-04T04:31:21;95547.47;;;13.46;52.63
27958;BME280;15295;42.658;23.374;2023-01-04T04:33:49;95547.84;;;13.45;52.64
27958;BME280;15295;42.658;23.374;2023-01-04T04:36:14;95559.63;;;13.38;52.75
27958;BME280;15295;42.658;23.374;2023-01-04T04:38:44;95543.50;;;13.26;52.91
27958;BME280;15295;42.658;23.374;2023-01-04T04:41:12;95552.16;;;13.32;53.07
27958;BME280;15295;42.658;23.374;2023-01-04T04:43:57;95562.75;;;13.33;52.77
27958;BME280;15295;42.658;23.374;2023-01-04T04:46:28;95554.91;;;13.32;52.76
27958;BME280;15295;42.658;23.374;2023-01-04T04:49:05;95555.72;;;13.43;52.40
27958;BME280;15295;42.658;23.374;2023-01-04T04:51:31;95543.91;;;13.18;52.88
27958;BME280;15295;42.658;23.374;2023-01-04T04:53:57;95569.78;;;13.31;52.50
27958;BME280;15295;42.658;23.374;2023-01-04T04:56:22;95564.31;;;13.27;52.49
27958;BME280;15295;42.658;23.374;2023-01-04T04:58:49;95560.38;;;13.39;52.30
27958;BME280;15295;42.658;23.374;2023-01-04T05:01:18;95563.94;;;13.46;52.29
27958;BME280;15295;42.658;23.374;2023-01-04T05:03:45;95574.13;;;13.42;52.37
27958;BME280;15295;42.658;23.374;2023-01-04T05:17:29;95547.81;;;13.20;52.87
27958;BME280;15295;42.658;23.374;2023-01-04T05:19:56;95547.44;;;13.18;52.85
27958;BME280;15295;42.658;23.374;2023-01-04T05:22:25;95583.94;;;13.36;52.73
27958;BME280;15295;42.658;23.374;2023-01-04T05:24:50;95521.47;;;12.87;52.62
27958;BME280;15295;42.658;23.374;2023-01-04T05:27:16;95579.97;;;13.16;52.89
27958;BME280;15295;42.658;23.374;2023-01-04T05:29:45;95584.72;;;13.33;53.03
27958;BME280;15295;42.658;23.374;2023-01-04T05:40:21;95571.72;;;13.05;52.96
27958;BME280;15295;42.658;23.374;2023-01-04T05:42:49;95568.16;;;12.98;52.96
27958;BME280;15295;42.658;23.374;2023-01-04T05:50:41;95600.34;;;13.11;53.14
27958;BME280;15295;42.658;23.374;2023-01-04T05:53:14;95579.22;;;13.19;52.77
27958;BME280;15295;42.658;23.374;2023-01-04T05:55:57;95595.69;;;13.37;52.71
27958;BME280;15295;42.658;23.374;2023-01-04T05:58:29;95576.44;;;13.12;52.86
27958;BME280;15295;42.658;23.374;2023-01-04T06:01:03;95576.84;;;13.14;52.93
27958;BME280;15295;42.658;23.374;2023-01-04T06:03:31;95600.00;;;13.41;52.44
27958;BME280;15295;42.658;23.374;2023-01-04T06:05:57;95531.25;;;12.78;52.86
27958;BME280;15295;42.658;23.374;2023-01-04T06:08:31;95574.47;;;13.05;52.74
27958;BME280;15295;42.658;23.374;2023-01-04T06:11:21;95579.91;;;12.95;52.82
27958;BME280;15295;42.658;23.374;2023-01-04T06:13:55;95546.16;;;12.84;52.80
27958;BME280;15295;42.658;23.374;2023-01-04T06:16:43;95604.31;;;13.28;52.70
27958;BME280;15295;42.658;23.374;2023-01-04T06:24:26;95580.38;;;13.25;52.23
27958;BME280;15295;42.658;23.374;2023-01-04T06:26:53;95546.66;;;13.10;52.00
27958;BME280;15295;42.658;23.374;2023-01-04T06:29:35;95603.53;;;13.45;51.84
27958;BME280;15295;42.658;23.374;2023-01-04T06:32:13;95601.56;;;13.39;51.76
27958;BME280;15295;42.658;23.374;2023-01-04T06:34:44;95542.66;;;13.01;51.85
27958;BME280;15295;42.658;23.374;2023-01-04T06:37:10;95574.91;;;13.25;51.72
27958;BME280;15295;42.658;23.374;2023-01-04T06:39:48;95629.44;;;13.48;51.82
27958;BME280;15295;42.658;23.374;2023-01-04T06:42:15;95557.59;;;13.07;51.63
27958;BME280;15295;42.658;23.374;2023-01-04T06:45:05;95614.16;;;13.47;51.63
27958;BME280;15295;42.658;23.374;2023-01-04T06:47:34;95587.44;;;13.26;51.43
27958;BME280;15295;42.658;23.374;2023-01-04T06:50:28;95622.38;;;13.54;51.80
27958;BME280;15295;42.658;23.374;2023-01-04T06:53:19;95579.19;;;13.26;51.46
27958;BME280;15295;42.658;23.374;2023-01-04T06:55:52;95581.56;;;13.28;51.42
27958;BME280;15295;42.658;23.374;2023-01-04T06:58:24;95559.19;;;13.22;51.33
27958;BME280;15295;42.658;23.374;2023-01-04T07:00:53;95558.03;;;13.23;51.25
27958;BME280;15295;42.658;23.374;2023-01-04T07:03:19;95624.78;;;13.66;52.05
27958;BME280;15295;42.658;23.374;2023-01-04T07:05:49;95546.28;;;13.40;52.77
27958;BME280;15295;42.658;23.374;2023-01-04T07:10:57;95625.56;;;13.98;50.44
27958;BME280;15295;42.658;23.374;2023-01-04T07:13:54;95604.75;;;13.86;50.02
27958;BME280;15295;42.658;23.374;2023-01-04T07:16:41;95561.97;;;13.64;49.85
27958;BME280;15295;42.658;23.374;2023-01-04T07:26:53;95643.91;;;16.57;43.92
27958;BME280;15295;42.658;23.374;2023-01-04T07:29:36;95644.06;;;16.80;43.18
27958;BME280;15295;42.658;23.374;2023-01-04T07:32:03;95654.69;;;17.46;42.24
27958;BME280;15295;42.658;23.374;2023-01-04T07:34:34;95617.78;;;17.33;41.41
27958;BME280;15295;42.658;23.374;2023-01-04T07:37:17;95632.22;;;17.74;40.83
27958;BME280;15295;42.658;23.374;2023-01-04T07:40:08;95654.59;;;17.56;41.15
27958;BME280;15295;42.658;23.374;2023-01-04T07:42:38;95623.13;;;17.17;41.49
27958;BME280;15295;42.658;23.374;2023-01-04T07:45:16;95600.81;;;17.01;41.65
27958;BME280;15295;42.658;23.374;2023-01-04T07:47:47;95648.53;;;17.35;41.60
27958;BME280;15295;42.658;23.374;2023-01-04T07:50:27;95603.31;;;17.22;41.44
27958;BME280;15295;42.658;23.374;2023-01-04T07:52:52;95652.31;;;17.48;41.44
27958;BME280;15295;42.658;23.374;2023-01-04T07:55:34;95616.97;;;17.32;41.50
27958;BME280;15295;42.658;23.374;2023-01-04T07:58:10;95605.91;;;17.36;40.41
27958;BME280;15295;42.658;23.374;2023-01-04T08:01:04;95669.31;;;17.46;40.91
27958;BME280;15295;42.658;23.374;2023-01-04T08:03:45;95629.19;;;17.05;41.54
27958;BME280;15295;42.658;23.374;2023-01-04T08:06:19;95649.66;;;17.07;41.70
27958;BME280;15295;42.658;23.374;2023-01-04T08:08:55;95611.16;;;16.63;42.00
27958;BME280;15295;42.658;23.374;2023-01-04T08:14:50;95607.16;;;16.64;42.08
27958;BME280;15295;42.658;23.374;2023-01-04T08:17:23;95670.53;;;17.12;42.24
27958;BME280;15295;42.658;23.374;2023-01-04T08:19:59;95614.25;;;16.98;42.00
27958;BME280;15295;42.658;23.374;2023-01-04T08:22:34;95629.09;;;17.42;41.06
27958;BME280;15295;42.658;23.374;2023-01-04T08:25:03;95642.91;;;17.42;40.81
27958;BME280;15295;42.658;23.374;2023-01-04T08:27:33;95604.97;;;17.16;41.16
27958;BME280;15295;42.658;23.374;2023-01-04T08:30:01;95607.75;;;17.16;40.89
27958;BME280;15295;42.658;23.374;2023-01-04T08:32:29;95606.78;;;16.65;40.89
27958;BME280;15295;42.658;23.374;2023-01-04T08:34:59;95605.03;;;16.41;41.69
27958;BME280;15295;42.658;23.374;2023-01-04T08:38:22;95670.63;;;16.67;42.35
27958;BME280;15295;42.658;23.374;2023-01-04T08:44:11;95676.56;;;16.18;43.26
27958;BME280;15295;42.658;23.374;2023-01-04T08:47:02;95652.50;;;15.71;43.60
27958;BME280;15295;42.658;23.374;2023-01-04T09:11:26;95673.34;;;14.85;46.45
27958;BME280;15295;42.658;23.374;2023-01-04T09:48:30;95616.13;;;13.81;47.39
27958;BME280;15295;42.658;23.374;2023-01-04T09:51:50;95592.97;;;13.75;47.30
27958;BME280;15295;42.658;23.374;2023-01-04T09:55:16;95651.47;;;14.22;47.17
27958;BME280;15295;42.658;23.374;2023-01-04T10:20:35;95653.81;;;14.41;46.76
27958;BME280;15295;42.658;23.374;2023-01-04T10:31:36;95645.16;;;14.42;46.86
27958;BME280;15295;42.658;23.374;2023-01-04T10:34:47;95622.00;;;14.33;46.74
27958;BME280;15295;42.658;23.374;2023-01-04T10:37:59;95585.47;;;14.08;46.71
27958;BME280;15295;42.658;23.374;2023-01-04T10:46:16;95651.06;;;14.41;47.23
27958;BME280;15295;42.658;23.374;2023-01-04T10:52:09;95656.97;;;14.32;47.72
27958;BME280;15295;42.658;23.374;2023-01-04T11:00:41;95567.47;;;13.71;47.92
27958;BME280;15295;42.658;23.374;2023-01-04T11:03:24;95643.59;;;14.24;48.12
27958;BME280;15295;42.658;23.374;2023-01-04T11:06:07;95621.22;;;14.15;48.00
27958;BME280;15295;42.658;23.374;2023-01-04T11:09:15;95576.47;;;13.93;47.88
27958;BME280;15295;42.658;23.374;2023-01-04T11:12:19;95560.38;;;13.88;47.73
27958;BME280;15295;42.658;23.374;2023-01-04T11:15:14;95591.38;;;14.24;47.70
27958;BME280;15295;42.658;23.374;2023-01-04T11:18:06;95627.81;;;14.63;47.34
27958;BME280;15295;42.658;23.374;2023-01-04T11:21:20;95630.91;;;14.83;46.83
27958;BME280;15295;42.658;23.374;2023-01-04T11:24:05;95596.38;;;14.71;46.87
27958;BME280;15295;42.658;23.374;2023-01-04T11:26:41;95602.59;;;14.86;46.41
27958;BME280;15295;42.658;23.374;2023-01-04T11:29:51;95561.38;;;14.68;45.93
27958;BME280;15295;42.658;23.374;2023-01-04T11:32:56;95609.22;;;14.99;46.20
27958;BME280;15295;42.658;23.374;2023-01-04T11:41:01;95587.97;;;14.99;45.80
27958;BME280;15295;42.658;23.374;2023-01-04T11:43:56;95584.81;;;14.97;45.73
27958;BME280;15295;42.658;23.374;2023-01-04T11:50:04;95574.28;;;14.85;46.06
27958;BME280;15295;42.658;23.374;2023-01-04T11:52:50;95582.47;;;14.96;45.91
27958;BME280;15295;42.658;23.374;2023-01-04T11:55:25;95589.22;;;14.88;46.16
27958;BME280;15295;42.658;23.374;2023-01-04T11:58:15;95567.16;;;14.98;45.90
27958;BME280;15295;42.658;23.374;2023-01-04T12:01:48;95599.69;;;15.17;45.44
27958;BME280;15295;42.658;23.374;2023-01-04T12:04:25;95584.81;;;15.04;45.78
27958;BME280;15295;42.658;23.374;2023-01-04T12:07:32;95545.16;;;14.91;45.57
27958;BME280;15295;42.658;23.374;2023-01-04T12:10:19;95526.31;;;14.86;45.76
27958;BME280;15295;42.658;23.374;2023-01-04T12:13:08;95582.41;;;15.75;44.85
27958;BME280;15295;42.658;23.374;2023-01-04T12:16:13;95570.03;;;16.35;43.83
27958;BME280;15295;42.658;23.374;2023-01-04T12:18:48;95558.56;;;16.73;42.82
27958;BME280;15295;42.658;23.374;2023-01-04T12:21:25;95573.44;;;17.13;41.97
27958;BME280;15295;42.658;23.374;2023-01-04T12:23:53;95550.66;;;17.06;41.62
27958;BME280;15295;42.658;23.374;2023-01-04T12:26:20;95548.53;;;17.43;41.12
27958;BME280;15295;42.658;23.374;2023-01-04T12:34:51;95525.91;;;16.98;40.61
27958;BME280;15295;42.658;23.374;2023-01-04T12:45:46;95518.69;;;16.07;42.31
27958;BME280;15295;42.658;23.374;2023-01-04T12:48:35;95568.53;;;16.27;42.77
27958;BME280;15295;42.658;23.374;2023-01-04T12:51:24;95569.38;;;16.20;43.02
27958;BME280;15295;42.658;23.374;2023-01-04T12:57:52;95569.22;;;15.97;43.58
27958;BME280;15295;42.658;23.374;2023-01-04T13:00:21;95574.47;;;15.81;43.76
27958;BME280;15295;42.658;23.374;2023-01-04T13:06:41;95565.13;;;15.71;44.35
27958;BME280;15295;42.658;23.374;2023-01-04T13:09:27;95552.25;;;15.54;44.53
27958;BME280;15295;42.658;23.374;2023-01-04T13:15:42;95522.44;;;15.38;44.68
27958;BME280;15295;42.658;23.374;2023-01-04T13:21:41;95562.88;;;15.56;44.82
27958;BME280;15295;42.658;23.374;2023-01-04T13:24:29;95572.75;;;15.42;45.10
27958;BME280;15295;42.658;23.374;2023-01-04T13:27:16;95533.25;;;15.12;45.24
27958;BME280;15295;42.658;23.374;2023-01-04T13:32:53;95559.06;;;15.32;45.44
27958;BME280;15295;42.658;23.374;2023-01-04T13:36:02;95571.63;;;15.36;45.51
27958;BME280;15295;42.658;23.374;2023-01-04T13:38:39;95566.25;;;15.15;45.75
27958;BME280;15295;42.658;23.374;2023-01-04T13:41:27;95545.47;;;15.04;45.63
27958;BME280;15295;42.658;23.374;2023-01-04T13:44:46;95578.38;;;15.28;45.89
27958;BME280;15295;42.658;23.374;2023-01-04T13:47:49;95574.09;;;15.20;45.99
27958;BME280;15295;42.658;23.374;2023-01-04T13:53:55;95586.72;;;15.11;46.32
27958;BME280;15295;42.658;23.374;2023-01-04T14:00:43;95542.88;;;14.76;46.34
27958;BME280;15295;42.658;23.374;2023-01-04T14:10:20;95568.81;;;14.78;46.80
27958;BME280;15295;42.658;23.374;2023-01-04T14:13:13;95533.94;;;14.54;46.78
27958;BME280;15295;42.658;23.374;2023-01-04T14:16:28;95507.25;;;14.44;46.93
27958;BME280;15295;42.658;23.374;2023-01-04T14:29:55;95578.25;;;14.77;47.17
27958;BME280;15295;42.658;23.374;2023-01-04T14:36:30;95584.94;;;14.80;47.51
27958;BME280;15295;42.658;23.374;2023-01-04T14:39:36;95586.88;;;14.83;47.33
27958;BME280;15295;42.658;23.374;2023-01-04T14:42:50;95552.72;;;14.69;47.29
27958;BME280;15295;42.658;23.374;2023-01-04T14:48:24;95566.47;;;14.73;47.11
27958;BME280;15295;42.658;23.374;2023-01-04T14:51:30;95579.78;;;14.85;47.15
27958;BME280;15295;42.658;23.374;2023-01-04T14:54:29;95558.63;;;14.68;47.17
27958;BME280;15295;42.658;23.374;2023-01-04T14:57:05;95549.25;;;14.55;47.32
27958;BME280;15295;42.658;23.374;2023-01-04T15:00:05;95582.22;;;14.69;47.48
27958;BME280;15295;42.658;23.374;2023-01-04T15:02:50;95558.34;;;14.45;47.48
27958;BME280;15295;42.658;23.374;2023-01-04T15:05:36;95574.03;;;14.44;47.72
27958;BME280;15295;42.658;23.374;2023-01-04T15:19:28;95590.13;;;14.46;48.08
27958;BME280;15295;42.658;23.374;2023-01-04T15:22:46;95585.06;;;14.41;48.21
27958;BME280;15295;42.658;23.374;2023-01-04T15:31:31;95539.16;;;13.99;48.97
27958;BME280;15295;42.658;23.374;2023-01-04T15:34:47;95568.97;;;14.25;48.25
27958;BME280;15295;42.658;23.374;2023-01-04T15:40:34;95581.56;;;14.30;48.34
27958;BME280;15295;42.658;23.374;2023-01-04T15:44:15;95608.22;;;14.47;48.42
27958;BME280;15295;42.658;23.374;2023-01-04T15:49:38;95606.66;;;14.49;48.36
27958;BME280;15295;42.658;23.374;2023-01-04T15:55:30;95614.53;;;14.37;48.67
27958;BME280;15295;42.658;23.374;2023-01-04T16:21:19;95615.75;;;13.93;49.99
27958;BME280;15295;42.658;23.374;2023-01-04T16:33:55;95610.63;;;13.81;50.64
27958;BME280;15295;42.658;23.374;2023-01-04T16:36:20;95599.25;;;13.76;50.43
27958;BME280;15295;42.658;23.374;2023-01-04T16:38:53;95611.41;;;13.89;50.30
27958;BME280;15295;42.658;23.374;2023-01-04T16:41:21;95589.84;;;13.80;50.34
27958;BME280;15295;42.658;23.374;2023-01-04T16:43:52;95588.66;;;13.78;50.10
27958;BME280;15295;42.658;23.374;2023-01-04T16:46:28;95620.84;;;13.91;50.38
27958;BME280;15295;42.658;23.374;2023-01-04T16:49:10;95615.34;;;13.88;50.25
27958;BME280;15295;42.658;23.374;2023-01-04T16:51:43;95596.50;;;13.79;50.29
27958;BME280;15295;42.658;23.374;2023-01-04T17:12:36;95593.00;;;13.68;50.71
27958;BME280;15295;42.658;23.374;2023-01-04T17:15:13;95618.88;;;13.81;50.63
27958;BME280;15295;42.658;23.374;2023-01-04T17:17:43;95586.28;;;13.73;50.51
27958;BME280;15295;42.658;23.374;2023-01-04T17:20:32;95600.81;;;13.73;50.58
27958;BME280;15295;42.658;23.374;2023-01-04T17:23:05;95621.63;;;13.88;50.40
27958;BME280;15295;42.658;23.374;2023-01-04T17:25:40;95620.84;;;13.91;50.52
27958;BME280;15295;42.658;23.374;2023-01-04T17:28:21;95618.06;;;13.99;50.34
27958;BME280;15295;42.658;23.374;2023-01-04T17:30:52;95556.88;;;13.63;50.46
27958;BME280;15295;42.658;23.374;2023-01-04T17:33:22;95614.16;;;14.00;50.38
27958;BME280;15295;42.658;23.374;2023-01-04T17:35:51;95587.88;;;13.77;50.11
27958;BME280;15295;42.658;23.374;2023-01-04T17:38:17;95619.28;;;13.98;50.06
27958;BME280;15295;42.658;23.374;2023-01-04T17:40:44;95610.63;;;13.88;50.23
27958;BME280;15295;42.658;23.374;2023-01-04T17:43:12;95612.97;;;13.90;50.24
27958;BME280;15295;42.658;23.374;2023-01-04T17:45:41;95607.50;;;13.86;50.34
27958;BME280;15295;42.658;23.374;2023-01-04T17:51:02;95566.69;;;13.57;50.32
27958;BME280;15295;42.658;23.374;2023-01-04T17:58:42;95586.31;;;13.76;49.89
27958;BME280;15295;42.658;23.374;2023-01-04T18:01:46;95598.84;;;13.84;50.26
27958;BME280;15295;42.658;23.374;2023-01-04T18:19:38;95595.31;;;13.84;50.42
27958;BME280;15295;42.658;23.374;2023-01-04T18:22:40;95599.63;;;13.81;50.43
27958;BME280;15295;42.658;23.374;2023-01-04T18:32:52;95606.69;;;13.75;50.35
27958;BME280;15295;42.658;23.374;2023-01-04T18:38:06;95612.59;;;13.88;50.39
27958;BME280;15295;42.658;23.374;2023-01-04T18:40:36;95567.47;;;13.50;50.34
27958;BME280;15295;42.658;23.374;2023-01-04T18:43:05;95627.53;;;13.83;50.89
27958;BME280;15295;42.658;23.374;2023-01-04T18:45:38;95602.00;;;13.65;50.60
27958;BME280;15295;42.658;23.374;2023-01-04T18:48:08;95623.19;;;13.75;50.78
27958;BME280;15295;42.658;23.374;2023-01-04T18:50:35;95629.47;;;13.72;50.93
27958;BME280;15295;42.658;23.374;2023-01-04T18:53:00;95604.75;;;13.65;50.95
27958;BME280;15295;42.658;23.374;2023-01-04T18:55:27;95622.03;;;13.76;51.02
27958;BME280;15295;42.658;23.374;2023-01-04T18:57:54;95616.91;;;13.78;50.99
27958;BME280;15295;42.658;23.374;2023-01-04T19:00:21;95609.09;;;13.77;50.91
27958;BME280;15295;42.658;23.374;2023-01-04T19:02:55;95616.91;;;13.78;50.90
27958;BME280;15295;42.658;23.374;2023-01-04T19:05:22;95603.97;;;13.68;50.85
27958;BME280;15295;42.658;23.374;2023-01-04T19:10:27;95583.94;;;13.54;50.98
27958;BME280;15295;42.658;23.374;2023-01-04T19:12:59;95611.00;;;13.73;51.18
27958;BME280;15295;42.658;23.374;2023-01-04T19:15:26;95586.31;;;13.55;51.19
27958;BME280;15295;42.658;23.374;2023-01-04T19:17:52;95599.66;;;13.67;51.25
27958;BME280;15295;42.658;23.374;2023-01-04T19:20:17;95590.25;;;13.58;51.40
27958;BME280;15295;42.658;23.374;2023-01-04T19:22:46;95589.81;;;13.56;51.48
27958;BME280;15295;42.658;23.374;2023-01-04T19:25:11;95584.75;;;13.61;51.50
27958;BME280;15295;42.658;23.374;2023-01-04T19:27:37;95588.66;;;13.64;51.54
27958;BME280;15295;42.658;23.374;2023-01-04T19:30:05;95562.75;;;13.51;51.43
27958;BME280;15295;42.658;23.374;2023-01-04T19:32:31;95575.31;;;13.62;51.37
27958;BME280;15295;42.658;23.374;2023-01-04T19:34:58;95591.03;;;13.72;51.35
27958;BME280;15295;42.658;23.374;2023-01-04T19:37:29;95555.72;;;13.53;51.42
27958;BME280;15295;42.658;23.374;2023-01-04T19:40:00;95584.75;;;13.72;51.37
27958;BME280;15295;42.658;23.374;2023-01-04T19:42:51;95577.28;;;13.72;51.45
27958;BME280;15295;42.658;23.374;2023-01-04T19:45:50;95580.41;;;13.71;51.38